Time;durP1;ratioP1;P1;durP2;ratioP2;P2;SDS_P1;SDS_P2;PMS_P1;PMS_P2;Temp;Humidity;BMP_temperature;BMP_pressure;BME280_temperature;BME280_humidity;BME280_pressure;Samples;Min_cycle;Max_cycle;Signal;HPM_P1;HPM_P2
2022/03/01 00:09:05;;;;;;;12.10;6.30;;;-3.30;99.90;;;;;;21067598;28;20044;-55
2022/03/01 00:19:08;;;;;;;13.43;6.13;;;-3.20;99.90;;;;;;21065761;28;20494;-55
2022/03/01 00:29:10;;;;;;;16.83;6.97;;;-3.00;99.90;;;;;;21065349;28;20035;-56
2022/03/01 00:39:14;;;;;;;14.95;7.97;;;-3.00;99.90;;;;;;21064386;28;20445;-59
2022/03/01 00:49:16;;;;;;;13.32;7.00;;;-3.00;99.90;;;;;;21047967;28;20487;-54
2022/03/01 00:59:19;;;;;;;14.48;6.53;;;-3.10;99.90;;;;;;21064367;28;20048;-56
2022/03/01 01:09:21;;;;;;;13.88;6.57;;;-2.90;99.90;;;;;;21064068;28;20044;-55
2022/03/01 01:19:23;;;;;;;11.93;6.43;;;-3.00;99.90;;;;;;21063388;28;20036;-57
2022/03/01 01:29:26;;;;;;;13.90;7.05;;;-3.10;99.90;;;;;;21063102;28;20028;-54
2022/03/01 01:39:28;;;;;;;15.65;7.78;;;-3.30;99.90;;;;;;21046405;28;20040;-54
2022/03/01 01:49:31;;;;;;;17.30;10.13;;;-3.30;99.90;;;;;;21063728;28;20032;-54
2022/03/01 01:59:34;;;;;;;15.07;7.15;;;-3.30;99.90;;;;;;21077090;28;20087;-54
2022/03/01 02:09:36;;;;;;;12.43;6.35;;;-3.20;99.90;;;;;;21076260;28;20113;-54
2022/03/01 02:19:46;;;;;;;11.55;5.28;;;-3.00;99.90;;;;;;21075264;28;20028;-56
2022/03/01 02:29:48;;;;;;;8.20;4.07;;;-3.00;99.90;;;;;;21075009;28;20090;-56
2022/03/01 02:39:53;;;;;;;8.57;4.20;;;-3.00;99.90;;;;;;21057041;28;20041;-54
2022/03/01 02:49:56;;;;;;;7.07;4.03;;;-3.30;99.90;;;;;;21074110;28;20032;-55
2022/03/01 02:59:59;;;;;;;7.40;4.20;;;-4.00;99.90;;;;;;21072558;28;20043;-55
2022/03/01 03:10:02;;;;;;;6.07;3.58;;;-4.50;99.90;;;;;;21071094;28;20040;-54
2022/03/01 03:20:06;;;;;;;5.50;2.85;;;-4.80;99.90;;;;;;21071045;28;20454;-53
2022/03/01 03:30:09;;;;;;;5.10;2.63;;;-4.80;99.90;;;;;;21071617;28;20036;-56
2022/03/01 03:40:12;;;;;;;5.07;2.60;;;-4.90;99.90;;;;;;21071124;28;20551;-53
2022/03/01 03:50:15;;;;;;;5.32;2.28;;;-5.00;99.90;;;;;;21068883;28;20066;-53
2022/03/01 04:00:18;;;;;;;5.15;2.50;;;-5.10;99.90;;;;;;21068023;28;20032;-54
2022/03/01 04:10:21;;;;;;;4.05;2.13;;;-5.40;99.90;;;;;;21066828;28;20093;-53
2022/03/01 04:20:24;;;;;;;5.38;2.03;;;-5.50;99.90;;;;;;21066567;28;20024;-58
2022/03/01 04:30:27;;;;;;;3.53;1.67;;;-5.60;99.90;;;;;;21065629;28;20468;-53
2022/03/01 04:40:30;;;;;;;4.07;1.75;;;-5.50;99.90;;;;;;21065255;28;20077;-54
2022/03/01 04:50:32;;;;;;;3.80;1.75;;;-5.30;99.90;;;;;;21064987;28;20105;-57
2022/03/01 05:00:36;;;;;;;3.47;1.77;;;-5.50;99.90;;;;;;21064278;28;20475;-56
2022/03/01 05:10:38;;;;;;;3.22;1.63;;;-5.70;99.70;;;;;;21048397;28;20044;-56
2022/03/01 05:20:41;;;;;;;3.65;1.85;;;-5.50;98.60;;;;;;21063750;28;20476;-55
2022/03/01 05:30:43;;;;;;;3.17;1.63;;;-5.60;99.50;;;;;;21057914;28;20090;-56
2022/03/01 05:40:46;;;;;;;4.47;2.03;;;-5.80;99.90;;;;;;21078597;28;20032;-53
2022/03/01 05:50:48;;;;;;;4.25;1.83;;;-6.10;98.20;;;;;;21077881;28;20085;-52
2022/03/01 06:00:51;;;;;;;4.88;2.30;;;-5.90;99.90;;;;;;21077254;28;20042;-55
2022/03/01 06:10:54;;;;;;;4.33;2.03;;;-6.20;99.90;;;;;;21076322;28;20028;-52
2022/03/01 06:20:58;;;;;;;3.33;1.97;;;-6.20;99.90;;;;;;21058795;28;20088;-53
2022/03/01 06:31:01;;;;;;;5.47;2.20;;;-6.30;99.90;;;;;;21074698;28;20101;-55
2022/03/01 06:41:04;;;;;;;2.90;1.47;;;-6.20;99.90;;;;;;21072944;28;20309;-57
2022/03/01 06:51:07;;;;;;;3.80;2.10;;;-6.10;99.90;;;;;;21074294;28;20488;-53
2022/03/01 07:01:11;;;;;;;3.10;1.58;;;-5.80;99.90;;;;;;21072031;28;20340;-52
2022/03/01 07:11:13;;;;;;;3.58;1.50;;;-5.50;99.90;;;;;;21071769;28;20451;-53
2022/03/01 07:21:16;;;;;;;4.20;1.65;;;-5.20;99.90;;;;;;21070409;28;20039;-52
2022/03/01 07:31:19;;;;;;;3.63;1.40;;;-4.90;99.90;;;;;;21070396;28;20036;-54
2022/03/01 07:41:21;;;;;;;3.50;1.60;;;-4.20;99.90;;;;;;21052367;28;20081;-52
2022/03/01 07:51:24;;;;;;;2.53;1.45;;;-3.10;99.10;;;;;;21067841;28;20097;-54
2022/03/01 08:01:28;;;;;;;3.67;2.05;;;-1.90;93.40;;;;;;21066987;28;20139;-54
2022/03/01 08:11:30;;;;;;;3.58;1.95;;;-0.70;91.80;;;;;;21066453;28;20082;-55
2022/03/01 08:21:34;;;;;;;3.05;1.92;;;0.40;90.80;;;;;;21067217;28;20040;-53
2022/03/01 08:31:39;;;;;;;4.28;2.20;;;1.30;86.60;;;;;;21066195;28;20043;-56
2022/03/01 08:41:42;;;;;;;4.50;2.40;;;1.90;85.20;;;;;;21065194;28;20252;-53
2022/03/01 08:51:44;;;;;;;5.55;2.72;;;2.20;85.40;;;;;;21064412;28;20043;-54
2022/03/01 09:01:47;;;;;;;3.88;2.47;;;2.50;88.50;;;;;;21069226;28;20495;-55
2022/03/01 09:11:50;;;;;;;4.03;2.70;;;2.60;83.20;;;;;;21080885;28;20105;-54
2022/03/01 09:21:52;;;;;;;5.45;3.08;;;2.90;82.30;;;;;;21080467;28;20044;-57
2022/03/01 09:31:55;;;;;;;6.93;2.83;;;3.20;86.50;;;;;;21079608;28;20491;-57
2022/03/01 09:41:59;;;;;;;4.63;2.85;;;3.20;77.30;;;;;;21078899;28;20062;-60
2022/03/01 09:52:01;;;;;;;6.43;3.13;;;3.00;87.20;;;;;;21078277;28;20161;-60
2022/03/01 10:02:05;;;;;;;5.22;3.00;;;3.60;86.80;;;;;;21060915;28;20089;-60
2022/03/01 10:12:08;;;;;;;6.60;3.22;;;4.20;80.70;;;;;;21076116;28;20048;-59
2022/03/01 10:22:12;;;;;;;7.25;3.83;;;4.30;81.50;;;;;;21075328;28;20040;-59
2022/03/01 10:32:14;;;;;;;6.45;3.67;;;4.30;82.20;;;;;;21075046;28;20040;-59
2022/03/01 10:42:26;;;;;;;7.28;3.58;;;4.30;80.20;;;;;;21073816;28;20082;-61
2022/03/01 10:52:39;;;;;;;7.05;4.05;;;4.50;83.70;;;;;;21073949;28;20089;-60
2022/03/01 11:02:42;;;;;;;7.57;4.43;;;5.00;80.40;;;;;;21072313;28;20048;-61
2022/03/01 11:12:48;;;;;;;8.25;5.07;;;4.90;82.90;;;;;;21071173;28;20089;-60
2022/03/01 11:23:09;;;;;;;8.57;5.10;;;5.00;85.90;;;;;;21069631;28;20093;-61
2022/03/01 11:33:11;;;;;;;8.40;5.03;;;5.20;90.10;;;;;;21069728;28;20062;-60
2022/03/01 11:43:26;;;;;;;9.38;4.90;;;5.80;86.90;;;;;;21068917;28;20120;-59
2022/03/01 11:53:33;;;;;;;7.63;4.32;;;5.60;85.00;;;;;;21068023;28;20082;-62
2022/03/01 12:03:38;;;;;;;6.85;4.00;;;5.50;84.10;;;;;;21067995;28;20479;-62
2022/03/01 12:13:44;;;;;;;9.27;4.55;;;5.50;83.40;;;;;;21066992;28;20090;-62
2022/03/01 12:23:46;;;;;;;8.02;4.50;;;4.90;84.70;;;;;;21066292;28;20044;-61
2022/03/01 12:33:53;;;;;;;7.97;4.63;;;5.00;82.00;;;;;;21064350;28;20031;-62
2022/03/01 12:44:02;;;;;;;9.13;4.93;;;4.80;83.90;;;;;;21066003;28;20031;-61
2022/03/01 12:54:30;;;;;;;7.07;4.18;;;5.40;86.20;;;;;;21064346;28;20040;-62
2022/03/01 13:04:35;;;;;;;8.90;4.82;;;5.70;82.60;;;;;;21064586;28;20089;-62
2022/03/01 13:14:38;;;;;;;8.70;4.78;;;5.80;81.50;;;;;;21063749;28;20043;-63
2022/03/01 13:24:49;;;;;;;9.48;5.18;;;6.00;84.20;;;;;;21063138;28;20086;-63
2022/03/01 13:35:02;;;;;;;10.95;5.75;;;6.20;82.00;;;;;;21046071;28;20032;-63
2022/03/01 13:45:11;;;;;;;7.90;4.72;;;6.10;84.10;;;;;;21063207;28;20062;-63
2022/03/01 13:55:24;;;;;;;8.40;5.18;;;5.70;82.70;;;;;;21077531;28;20148;-64
2022/03/01 14:05:29;;;;;;;8.45;5.30;;;5.50;83.20;;;;;;21076638;28;20105;-62
2022/03/01 14:15:37;;;;;;;7.95;5.20;;;4.60;83.60;;;;;;21076045;28;20032;-62
2022/03/01 14:25:40;;;;;;;14.13;5.38;;;4.20;84.10;;;;;;21075236;28;20077;-61
2022/03/01 14:35:42;;;;;;;10.18;5.30;;;3.80;85.50;;;;;;21074972;28;20271;-60
2022/03/01 14:45:45;;;;;;;12.07;5.78;;;3.50;86.60;;;;;;21073935;28;20433;-60
2022/03/01 14:55:49;;;;;;;11.35;5.60;;;3.20;86.80;;;;;;21072799;28;20048;-60
2022/03/01 15:05:53;;;;;;;12.95;6.45;;;2.90;87.60;;;;;;21070787;28;20437;-59
2022/03/01 15:15:57;;;;;;;11.00;6.07;;;2.30;89.50;;;;;;21048499;28;20031;-59
2022/03/01 15:26:01;;;;;;;11.88;6.57;;;2.00;90.30;;;;;;21055891;28;20215;-59
2022/03/01 15:36:04;;;;;;;10.88;6.25;;;1.70;90.60;;;;;;21065885;28;20036;-60
2022/03/01 15:46:06;;;;;;;11.77;6.03;;;1.30;91.00;;;;;;21066760;28;20386;-60
2022/03/01 15:56:09;;;;;;;10.50;6.63;;;0.90;91.00;;;;;;21067932;28;20487;-56
2022/03/01 16:06:12;;;;;;;12.18;6.15;;;0.20;91.90;;;;;;21064792;28;20066;-58
2022/03/01 16:16:15;;;;;;;12.70;7.30;;;-0.20;93.40;;;;;;21049559;28;20097;-60
2022/03/01 16:26:18;;;;;;;13.40;6.95;;;-0.70;94.30;;;;;;21065698;28;20040;-58
2022/03/01 16:36:20;;;;;;;12.65;6.78;;;-1.20;95.60;;;;;;21064734;28;20089;-58
2022/03/01 16:46:23;;;;;;;18.60;6.72;;;-1.40;96.80;;;;;;21065354;28;20036;-59
2022/03/01 16:56:25;;;;;;;11.30;5.80;;;-1.80;97.60;;;;;;20971603;28;20133;-60
2022/03/01 17:06:31;;;;;;;12.68;5.82;;;-2.00;99.00;;;;;;20971004;28;20467;-60
2022/03/01 17:16:34;;;;;;;10.38;5.30;;;-2.30;99.30;;;;;;20970717;28;20076;-58
2022/03/01 17:26:37;;;;;;;13.95;6.32;;;-2.50;99.30;;;;;;20981750;28;20504;-58
2022/03/01 17:36:39;;;;;;;11.65;4.97;;;-2.70;99.90;;;;;;21017667;28;20101;-56
2022/03/01 17:46:42;;;;;;;14.38;7.47;;;-2.80;99.90;;;;;;21078078;28;20395;-57
2022/03/01 17:56:46;;;;;;;12.93;6.35;;;-2.80;99.90;;;;;;21060684;28;20463;-59
2022/03/01 18:06:49;;;;;;;14.13;6.30;;;-2.90;99.90;;;;;;21076171;28;20109;-59
2022/03/01 18:16:52;;;;;;;12.15;5.90;;;-2.90;99.90;;;;;;21075233;28;20032;-59
2022/03/01 18:26:54;;;;;;;11.10;5.90;;;-3.00;99.90;;;;;;21074712;28;20035;-58
2022/03/01 18:36:57;;;;;;;11.48;5.82;;;-3.10;99.90;;;;;;21074108;28;20035;-56
2022/03/01 18:47:02;;;;;;;11.68;6.05;;;-3.20;99.90;;;;;;21057246;28;20086;-58
2022/03/01 18:57:07;;;;;;;14.05;6.68;;;-3.30;99.90;;;;;;21072694;28;20048;-58
2022/03/01 19:07:10;;;;;;;13.45;7.55;;;-3.30;99.90;;;;;;21054970;28;20348;-58
2022/03/01 19:17:13;;;;;;;11.02;5.97;;;-3.40;99.90;;;;;;21070653;28;20450;-58
2022/03/01 19:27:16;;;;;;;13.85;6.40;;;-3.30;99.90;;;;;;21070962;28;20395;-60
2022/03/01 19:37:19;;;;;;;11.15;6.28;;;-3.30;99.90;;;;;;21068902;28;20083;-68
2022/03/01 19:47:21;;;;;;;9.23;5.30;;;-3.30;99.90;;;;;;21051717;28;20036;-62
2022/03/01 19:57:24;;;;;;;13.45;4.70;;;-3.10;99.90;;;;;;21067664;28;20407;-54
2022/03/01 20:07:28;;;;;;;12.18;5.00;;;-3.00;99.90;;;;;;20973607;28;20100;-52
2022/03/01 20:17:31;;;;;;;13.63;5.40;;;-3.00;99.90;;;;;;20956735;28;20048;-63
2022/03/01 20:27:35;;;;;;;11.05;5.32;;;-3.30;99.90;;;;;;20972742;28;20132;-52
2022/03/01 20:37:38;;;;;;;10.40;5.03;;;-3.40;99.90;;;;;;20986124;28;20097;-54
2022/03/01 20:47:42;;;;;;;9.20;5.05;;;-3.40;99.90;;;;;;21064454;28;20112;-58
2022/03/01 20:57:47;;;;;;;10.57;5.28;;;-3.40;99.90;;;;;;21063575;28;20048;-54
2022/03/01 21:07:55;;;;;;;11.05;4.70;;;-3.30;99.90;;;;;;21062844;28;20040;-56
2022/03/01 21:18:00;;;;;;;10.35;5.05;;;-3.30;99.90;;;;;;21064199;28;20093;-57
2022/03/01 21:28:04;;;;;;;9.57;4.50;;;-3.30;99.90;;;;;;21063047;28;20445;-54
2022/03/01 21:38:13;;;;;;;10.02;4.57;;;-3.40;99.90;;;;;;21061161;28;20032;-57
2022/03/01 21:48:16;;;;;;;8.13;4.28;;;-3.60;99.90;;;;;;21060323;28;20036;-56
2022/03/01 21:58:19;;;;;;;8.02;4.20;;;-3.50;99.90;;;;;;21061306;28;20043;-58
2022/03/01 22:08:22;;;;;;;11.45;4.60;;;-3.50;99.90;;;;;;21064775;28;20040;-54
2022/03/01 22:18:25;;;;;;;10.77;4.47;;;-3.50;99.90;;;;;;21074773;28;20037;-59
2022/03/01 22:28:28;;;;;;;8.02;4.15;;;-3.50;99.90;;;;;;21073697;28;20459;-60
2022/03/01 22:38:30;;;;;;;6.80;2.70;;;-3.40;99.80;;;;;;21073213;28;20032;-60
2022/03/01 22:48:33;;;;;;;4.82;1.67;;;-3.10;97.60;;;;;;21056569;28;20032;-59
2022/03/01 22:58:36;;;;;;;2.38;1.30;;;-3.20;96.70;;;;;;21071199;28;20048;-61
2022/03/01 23:08:41;;;;;;;4.97;1.35;;;-3.20;95.30;;;;;;21070910;28;20048;-61
2022/03/01 23:18:44;;;;;;;2.15;0.88;;;-3.20;94.20;;;;;;21070969;28;20032;-63
2022/03/01 23:28:47;;;;;;;1.77;0.80;;;-3.20;92.80;;;;;;21069370;28;20101;-59
2022/03/01 23:38:49;;;;;;;1.40;0.77;;;-3.20;93.50;;;;;;21068816;28;20023;-59
2022/03/01 23:48:52;;;;;;;1.45;0.80;;;-3.30;93.00;;;;;;21050763;28;20032;-57
2022/03/01 23:58:54;;;;;;;2.15;1.15;;;-3.20;91.90;;;;;;21066878;28;20097;-55
